Time;durP1;ratioP1;P1;durP2;ratioP2;P2;SDS_P1;SDS_P2;PMS_P1;PMS_P2;Temp;Humidity;BMP_temperature;BMP_pressure;BME280_temperature;BME280_humidity;BME280_pressure;Samples;Min_cycle;Max_cycle;Signal;HPM_P1;HPM_P2
2021/07/25 00:01:35;;;;;;;12.13;3.65;;;17.40;84.70;;;;;;6216931;23;20023;-77
2021/07/25 00:04:03;;;;;;;11.27;4.43;;;17.30;84.80;;;;;;6216911;23;20020;-76
2021/07/25 00:06:31;;;;;;;17.27;3.97;;;17.40;85.10;;;;;;6190723;23;20121;-78
2021/07/25 00:08:58;;;;;;;9.20;3.90;;;17.40;85.20;;;;;;6190193;23;20028;-77
2021/07/25 00:11:26;;;;;;;13.18;4.10;;;17.40;85.30;;;;;;6216416;23;20020;-78
2021/07/25 00:13:54;;;;;;;10.32;4.00;;;17.40;85.50;;;;;;6190283;23;20020;-78
2021/07/25 00:16:21;;;;;;;19.15;4.55;;;17.40;85.60;;;;;;6190140;23;20024;-77
2021/07/25 00:18:49;;;;;;;16.77;4.20;;;17.40;85.60;;;;;;6190060;23;20055;-77
2021/07/25 00:21:16;;;;;;;11.32;4.00;;;17.40;85.50;;;;;;6216900;23;20016;-77
2021/07/25 00:23:46;;;;;;;13.90;4.55;;;17.40;85.20;;;;;;6216565;23;20016;-77
2021/07/25 00:26:16;;;;;;;8.98;4.13;;;17.40;85.20;;;;;;6216731;23;20023;-77
2021/07/25 00:28:44;;;;;;;11.98;3.97;;;17.40;85.30;;;;;;6215941;23;20460;-76
2021/07/25 00:31:11;;;;;;;11.32;4.38;;;17.40;85.40;;;;;;6216207;23;20027;-77
2021/07/25 00:33:38;;;;;;;12.95;3.83;;;17.40;85.40;;;;;;6216570;23;20052;-76
2021/07/25 00:36:06;;;;;;;16.65;4.65;;;17.40;85.30;;;;;;6216404;23;20020;-78
2021/07/25 00:38:34;;;;;;;12.43;4.43;;;17.40;85.30;;;;;;6189813;23;20023;-77
2021/07/25 00:41:12;;;;;;;13.90;4.20;;;17.40;85.30;;;;;;6215884;23;20464;-78
2021/07/25 00:43:40;;;;;;;11.20;3.97;;;17.40;85.20;;;;;;6216265;23;20075;-77
2021/07/25 00:46:07;;;;;;;21.30;4.63;;;17.30;85.20;;;;;;6216363;23;20027;-77
2021/07/25 00:48:35;;;;;;;13.30;4.07;;;17.30;85.30;;;;;;6190108;23;20027;-76
2021/07/25 00:51:05;;;;;;;17.17;4.15;;;17.30;85.40;;;;;;6216488;23;20027;-77
2021/07/25 00:53:38;;;;;;;15.95;4.45;;;17.30;85.50;;;;;;6189752;23;20020;-78
2021/07/25 00:56:08;;;;;;;17.63;4.47;;;17.40;85.60;;;;;;6189813;23;20024;-77
2021/07/25 00:58:40;;;;;;;19.30;4.43;;;17.30;85.60;;;;;;6189695;23;20699;-76
2021/07/25 01:01:08;;;;;;;25.88;5.53;;;17.40;85.70;;;;;;6189709;23;20031;-77
2021/07/25 01:04:04;;;;;;;27.58;4.95;;;17.30;85.50;;;;;;6216703;23;20017;-78
2021/07/25 01:06:55;;;;;;;33.50;5.30;;;17.40;85.30;;;;;;6215734;23;20016;-77
2021/07/25 01:09:35;;;;;;;20.05;5.05;;;17.30;84.80;;;;;;6216336;23;20021;-78
2021/07/25 01:12:08;;;;;;;47.58;5.70;;;17.30;84.70;;;;;;6215468;23;20361;-75
2021/07/25 01:14:39;;;;;;;25.15;5.07;;;17.30;84.60;;;;;;6216379;23;20112;-77
2021/07/25 01:17:33;;;;;;;23.13;5.25;;;17.20;84.70;;;;;;6189946;23;20067;-76
2021/07/25 01:20:10;;;;;;;29.48;5.35;;;17.30;85.00;;;;;;6207165;23;20063;-77
2021/07/25 01:22:40;;;;;;;36.47;5.38;;;17.30;85.20;;;;;;6216288;23;20016;-77
2021/07/25 01:25:11;;;;;;;18.98;5.65;;;17.30;85.40;;;;;;6216179;23;20017;-77
2021/07/25 01:28:10;;;;;;;14.60;5.60;;;17.30;85.30;;;;;;6215839;23;20016;-77
2021/07/25 01:30:41;;;;;;;23.38;5.60;;;17.30;85.30;;;;;;6216185;23;20027;-76
2021/07/25 01:33:11;;;;;;;18.05;5.47;;;17.30;85.50;;;;;;6216208;23;20048;-77
2021/07/25 01:35:39;;;;;;;30.45;6.15;;;17.30;85.50;;;;;;6216049;23;20060;-76
2021/07/25 01:38:09;;;;;;;21.13;4.53;;;17.30;85.50;;;;;;6189488;23;20480;-77
2021/07/25 01:40:37;;;;;;;23.40;5.85;;;17.30;85.40;;;;;;6189380;23;20021;-77
2021/07/25 01:43:06;;;;;;;16.85;5.32;;;17.30;85.30;;;;;;6189893;23;20028;-75
2021/07/25 01:45:35;;;;;;;18.23;5.43;;;17.30;85.40;;;;;;6215850;23;20020;-78
2021/07/25 01:48:03;;;;;;;23.45;5.40;;;17.40;85.60;;;;;;6189285;23;20026;-77
2021/07/25 01:50:30;;;;;;;20.55;5.82;;;17.30;85.80;;;;;;6215834;23;20027;-78
2021/07/25 01:52:57;;;;;;;21.15;5.43;;;17.30;85.80;;;;;;6216027;23;20043;-78
2021/07/25 01:55:24;;;;;;;12.05;4.95;;;17.40;85.80;;;;;;6215455;23;20371;-77
2021/07/25 01:57:51;;;;;;;24.05;5.30;;;17.40;85.70;;;;;;6215873;23;20460;-78
2021/07/25 02:00:18;;;;;;;26.13;5.57;;;17.40;85.70;;;;;;6188993;23;20024;-76
2021/07/25 02:02:45;;;;;;;16.75;5.32;;;17.40;85.70;;;;;;6216436;23;20017;-77
2021/07/25 02:05:12;;;;;;;13.85;4.65;;;17.40;85.80;;;;;;6189363;23;20020;-77
2021/07/25 02:07:39;;;;;;;22.00;5.03;;;17.40;86.00;;;;;;6215833;23;20023;-76
2021/07/25 02:10:07;;;;;;;16.50;4.80;;;17.40;86.10;;;;;;6215657;23;20047;-77
2021/07/25 02:12:34;;;;;;;22.75;4.60;;;17.40;86.20;;;;;;6215638;23;20352;-78
2021/07/25 02:15:01;;;;;;;11.13;4.07;;;17.40;86.20;;;;;;6215601;23;20021;-77
2021/07/25 02:17:28;;;;;;;23.42;4.75;;;17.40;86.00;;;;;;6215332;23;20060;-76
2021/07/25 02:19:55;;;;;;;11.95;4.93;;;17.40;86.00;;;;;;6215150;23;20344;-76
2021/07/25 02:22:22;;;;;;;24.60;5.38;;;17.40;85.90;;;;;;6215336;23;20017;-78
2021/07/25 02:24:49;;;;;;;16.55;4.50;;;17.40;85.90;;;;;;6215360;23;20074;-77
2021/07/25 02:27:16;;;;;;;20.20;4.78;;;17.50;86.00;;;;;;6189335;23;20023;-76
2021/07/25 02:29:43;;;;;;;14.90;4.78;;;17.40;86.00;;;;;;6188965;23;20021;-77
2021/07/25 02:32:10;;;;;;;23.02;4.55;;;17.40;86.00;;;;;;6189695;23;20020;-77
2021/07/25 02:34:38;;;;;;;17.45;4.60;;;17.40;86.00;;;;;;6215403;23;20027;-77
2021/07/25 02:37:05;;;;;;;18.42;4.15;;;17.40;85.90;;;;;;6215141;23;20341;-77
2021/07/25 02:39:32;;;;;;;28.08;4.70;;;17.40;85.70;;;;;;6214808;23;20021;-76
2021/07/25 02:41:59;;;;;;;16.50;4.60;;;17.40;85.50;;;;;;6215288;23;20456;-78
2021/07/25 02:44:26;;;;;;;21.65;4.82;;;17.40;85.40;;;;;;6188906;23;20352;-78
2021/07/25 02:46:53;;;;;;;30.20;4.90;;;17.40;85.30;;;;;;6214997;23;20411;-77
2021/07/25 02:49:20;;;;;;;28.13;5.53;;;17.40;85.10;;;;;;6215231;23;20052;-79
2021/07/25 02:51:47;;;;;;;20.13;5.47;;;17.40;85.10;;;;;;6189155;23;20017;-79
2021/07/25 02:54:14;;;;;;;18.27;5.07;;;17.40;85.10;;;;;;6215133;23;20421;-78
2021/07/25 02:56:41;;;;;;;20.27;5.57;;;17.40;85.20;;;;;;6215153;23;20043;-77
2021/07/25 02:59:08;;;;;;;21.48;5.57;;;17.40;85.30;;;;;;6215160;23;20027;-77
2021/07/25 03:01:35;;;;;;;36.70;5.47;;;17.40;85.30;;;;;;6188597;23;20027;-78
2021/07/25 03:04:02;;;;;;;29.92;6.20;;;17.40;85.30;;;;;;6214963;23;20021;-77
2021/07/25 03:06:29;;;;;;;18.67;5.13;;;17.40;85.30;;;;;;6188659;23;20025;-78
2021/07/25 03:08:56;;;;;;;38.15;6.20;;;17.40;85.30;;;;;;6215214;23;20017;-77
2021/07/25 03:11:23;;;;;;;21.95;5.53;;;17.30;85.40;;;;;;6189128;23;20021;-78
2021/07/25 03:13:50;;;;;;;26.02;6.93;;;17.40;85.50;;;;;;6214775;23;20035;-76
2021/07/25 03:16:18;;;;;;;38.40;7.47;;;17.40;85.50;;;;;;6189288;23;20020;-77
2021/07/25 03:18:45;;;;;;;27.75;5.72;;;17.40;85.40;;;;;;6214997;23;20382;-77
2021/07/25 03:21:12;;;;;;;28.80;5.63;;;17.40;85.50;;;;;;6214895;23;20017;-76
2021/07/25 03:23:39;;;;;;;25.83;6.35;;;17.40;85.70;;;;;;6215025;23;20016;-78
2021/07/25 03:26:06;;;;;;;26.83;6.80;;;17.40;85.90;;;;;;6190479;23;20016;-77
2021/07/25 03:28:33;;;;;;;22.70;6.75;;;17.40;86.00;;;;;;6216917;23;20017;-76
2021/07/25 03:31:00;;;;;;;20.30;5.80;;;17.40;86.00;;;;;;6217315;23;20020;-78
2021/07/25 03:33:27;;;;;;;31.88;7.28;;;17.40;86.10;;;;;;6191082;23;20020;-77
2021/07/25 03:35:54;;;;;;;31.77;7.20;;;17.40;86.20;;;;;;6216714;23;20350;-77
2021/07/25 03:38:21;;;;;;;25.10;6.57;;;17.40;86.20;;;;;;6216531;23;20025;-76
2021/07/25 03:40:48;;;;;;;24.85;6.32;;;17.50;86.10;;;;;;6217135;23;20020;-78
2021/07/25 03:43:16;;;;;;;25.40;5.47;;;17.50;86.00;;;;;;6190861;23;20020;-77
2021/07/25 03:45:46;;;;;;;27.45;6.22;;;17.50;85.90;;;;;;6216829;23;20017;-77
2021/07/25 03:48:15;;;;;;;41.80;6.70;;;17.50;85.90;;;;;;6217126;23;20023;-77
2021/07/25 03:50:43;;;;;;;39.55;6.40;;;17.50;85.90;;;;;;6216992;23;20028;-78
2021/07/25 03:53:10;;;;;;;25.77;6.05;;;17.50;85.90;;;;;;6190328;23;20021;-76
2021/07/25 03:55:42;;;;;;;22.73;6.18;;;17.50;85.90;;;;;;6190804;23;20021;-77
2021/07/25 03:58:09;;;;;;;29.95;6.50;;;17.50;85.90;;;;;;6216688;23;20095;-76
2021/07/25 04:00:36;;;;;;;31.63;6.25;;;17.50;85.90;;;;;;6190199;23;20063;-77
2021/07/25 04:03:03;;;;;;;29.83;6.82;;;17.40;85.90;;;;;;6190275;23;20364;-77
2021/07/25 04:05:31;;;;;;;18.58;6.45;;;17.50;85.90;;;;;;6189992;23;20027;-78
2021/07/25 04:07:58;;;;;;;17.38;5.85;;;17.50;85.90;;;;;;6216715;23;20016;-77
2021/07/25 04:10:25;;;;;;;28.35;6.78;;;17.50;85.80;;;;;;6217097;23;20027;-78
2021/07/25 04:12:52;;;;;;;25.38;6.50;;;17.40;85.80;;;;;;6216808;23;20027;-79
2021/07/25 04:15:20;;;;;;;13.73;6.22;;;17.40;85.80;;;;;;6216493;23;20020;-78
2021/07/25 04:17:47;;;;;;;23.58;6.25;;;17.50;85.80;;;;;;6216928;23;20021;-76
2021/07/25 04:20:14;;;;;;;33.28;6.93;;;17.40;85.80;;;;;;6216550;23;20081;-77
2021/07/25 04:22:41;;;;;;;19.83;5.93;;;17.40;85.90;;;;;;6216562;23;20472;-77
2021/07/25 04:25:08;;;;;;;20.67;6.55;;;17.40;85.90;;;;;;6216827;23;20017;-79
2021/07/25 04:27:36;;;;;;;19.88;6.28;;;17.40;85.90;;;;;;6216716;23;20021;-78
2021/07/25 04:30:03;;;;;;;18.27;6.40;;;17.50;86.00;;;;;;6216508;23;20025;-77
2021/07/25 04:32:31;;;;;;;27.80;7.55;;;17.50;86.10;;;;;;6216646;23;20020;-78
2021/07/25 04:34:58;;;;;;;21.85;6.25;;;17.40;86.10;;;;;;6215857;23;20020;-77
2021/07/25 04:37:29;;;;;;;14.73;6.20;;;17.50;86.20;;;;;;6215751;23;20020;-76
2021/07/25 04:39:56;;;;;;;17.65;6.30;;;17.50;86.20;;;;;;6216394;23;20027;-77
2021/07/25 04:42:26;;;;;;;22.83;6.88;;;17.50;86.20;;;;;;6216235;23;20361;-78
2021/07/25 04:45:06;;;;;;;21.23;6.43;;;17.50;86.30;;;;;;6216587;23;20460;-78
2021/07/25 04:47:43;;;;;;;21.98;6.20;;;17.50;86.20;;;;;;6190261;23;20023;-78
2021/07/25 04:50:16;;;;;;;23.77;6.32;;;17.50;86.20;;;;;;6215718;23;20025;-77
2021/07/25 04:52:46;;;;;;;25.80;6.55;;;17.50;86.20;;;;;;6216081;23;20027;-75
2021/07/25 04:55:13;;;;;;;16.67;6.28;;;17.50;86.30;;;;;;6216395;23;20027;-78
2021/07/25 04:57:42;;;;;;;16.50;6.40;;;17.50;86.30;;;;;;6216030;23;20024;-76
2021/07/25 05:00:15;;;;;;;13.02;5.43;;;17.50;86.40;;;;;;6189661;23;20016;-77
2021/07/25 05:02:43;;;;;;;23.33;6.10;;;17.60;86.50;;;;;;6216228;23;20021;-77
2021/07/25 05:05:11;;;;;;;13.65;5.47;;;17.60;86.60;;;;;;6189489;23;20017;-76
2021/07/25 05:07:40;;;;;;;9.88;5.57;;;17.60;86.60;;;;;;6216402;23;20464;-77
2021/07/25 05:10:09;;;;;;;18.58;5.57;;;17.60;86.60;;;;;;6215848;23;20066;-78
2021/07/25 05:12:41;;;;;;;13.30;5.70;;;17.70;86.70;;;;;;6216240;23;20039;-78
2021/07/25 05:15:17;;;;;;;15.25;5.75;;;17.70;86.80;;;;;;6216130;23;20051;-78
2021/07/25 05:18:07;;;;;;;13.95;5.65;;;17.70;86.90;;;;;;6189343;23;20023;-77
2021/07/25 05:20:55;;;;;;;11.55;5.30;;;17.70;86.90;;;;;;6215544;23;20017;-78
2021/07/25 05:23:33;;;;;;;14.25;5.63;;;17.80;87.00;;;;;;6189448;23;20023;-76
2021/07/25 05:26:01;;;;;;;9.07;5.45;;;17.80;87.10;;;;;;6189713;23;20044;-78
2021/07/25 05:28:28;;;;;;;10.68;4.88;;;17.80;87.10;;;;;;6216044;23;20016;-77
2021/07/25 05:30:56;;;;;;;18.20;6.10;;;17.80;87.20;;;;;;6190008;23;20025;-78
2021/07/25 05:33:24;;;;;;;14.55;5.75;;;17.90;87.20;;;;;;6215385;23;20341;-75
2021/07/25 05:35:51;;;;;;;13.13;5.38;;;17.90;87.30;;;;;;6216023;23;20021;-77
2021/07/25 05:38:19;;;;;;;11.95;6.22;;;17.90;87.30;;;;;;6215617;23;20029;-77
2021/07/25 05:40:46;;;;;;;19.80;5.90;;;17.90;87.30;;;;;;6189008;23;20021;-79
2021/07/25 05:43:13;;;;;;;13.73;5.63;;;17.90;87.30;;;;;;6215893;23;20344;-78
2021/07/25 05:45:41;;;;;;;12.05;5.05;;;17.90;87.30;;;;;;6215451;23;20021;-78
2021/07/25 05:48:09;;;;;;;9.18;4.57;;;17.90;87.30;;;;;;6215414;23;20016;-78
2021/07/25 05:50:36;;;;;;;16.27;5.20;;;17.90;87.30;;;;;;6215624;23;20047;-77
2021/07/25 05:53:04;;;;;;;18.00;5.70;;;17.90;87.40;;;;;;6215812;23;20021;-77
2021/07/25 05:55:33;;;;;;;21.63;5.80;;;18.00;87.40;;;;;;6189540;23;20100;-76
2021/07/25 05:58:01;;;;;;;17.13;5.60;;;18.00;87.40;;;;;;6215779;23;20042;-76
2021/07/25 06:00:28;;;;;;;15.45;4.88;;;18.00;87.40;;;;;;6215726;23;20021;-77
2021/07/25 06:03:02;;;;;;;12.77;5.22;;;18.00;87.20;;;;;;6215447;23;20016;-77
2021/07/25 06:05:33;;;;;;;16.80;5.43;;;18.00;87.10;;;;;;6215346;23;20021;-76
2021/07/25 06:08:03;;;;;;;23.20;5.22;;;18.00;87.00;;;;;;6215558;23;20123;-76
2021/07/25 06:10:31;;;;;;;15.80;5.97;;;18.00;86.90;;;;;;6189375;23;20020;-77
2021/07/25 06:13:00;;;;;;;20.88;5.72;;;18.00;86.90;;;;;;6215475;23;20025;-76
2021/07/25 06:15:29;;;;;;;16.23;5.07;;;18.00;86.90;;;;;;6215200;23;20032;-77
2021/07/25 06:18:00;;;;;;;11.57;4.85;;;18.00;86.90;;;;;;6215490;23;20024;-76
2021/07/25 06:20:28;;;;;;;12.35;5.00;;;18.00;86.90;;;;;;6188931;23;20100;-79
2021/07/25 06:22:56;;;;;;;20.85;5.40;;;18.00;86.90;;;;;;6189440;23;20352;-78
2021/07/25 06:25:29;;;;;;;12.85;4.30;;;18.00;86.90;;;;;;6188809;23;20020;-78
2021/07/25 06:27:58;;;;;;;16.23;4.90;;;18.00;86.90;;;;;;6215606;23;20404;-78
2021/07/25 06:30:26;;;;;;;13.40;4.90;;;18.00;86.80;;;;;;6189488;23;20017;-77
2021/07/25 06:33:03;;;;;;;12.00;4.63;;;18.00;86.70;;;;;;6189579;23;20096;-77
2021/07/25 06:35:37;;;;;;;15.05;5.13;;;18.00;86.70;;;;;;6215562;23;20017;-77
2021/07/25 06:38:08;;;;;;;12.82;4.88;;;18.00;86.70;;;;;;6189101;23;20016;-78
2021/07/25 06:40:36;;;;;;;14.50;4.88;;;17.90;86.80;;;;;;6215363;23;20348;-77
2021/07/25 06:43:04;;;;;;;15.52;5.55;;;17.90;86.80;;;;;;6215302;23;20348;-78
2021/07/25 06:45:32;;;;;;;13.27;5.03;;;17.90;86.90;;;;;;6214953;23;20510;-75
2021/07/25 06:48:00;;;;;;;11.35;5.07;;;17.90;86.90;;;;;;6215065;23;20456;-76
2021/07/25 06:50:30;;;;;;;18.23;4.85;;;17.90;86.90;;;;;;6189176;23;20027;-77
2021/07/25 06:52:58;;;;;;;12.90;5.40;;;18.00;86.90;;;;;;6215316;23;20348;-78
2021/07/25 06:55:27;;;;;;;11.27;4.95;;;17.90;86.90;;;;;;6215185;23;20103;-76
2021/07/25 06:57:55;;;;;;;17.23;5.43;;;18.00;87.00;;;;;;6215439;23;20023;-76
2021/07/25 07:00:22;;;;;;;13.52;4.80;;;18.00;87.10;;;;;;6214683;23;20017;-77
2021/07/25 07:02:57;;;;;;;11.40;5.22;;;18.10;87.10;;;;;;6189097;23;20017;-77
2021/07/25 07:05:29;;;;;;;11.85;4.55;;;18.00;87.00;;;;;;6215393;23;20028;-78
2021/07/25 07:08:02;;;;;;;9.45;4.20;;;18.00;86.90;;;;;;6214947;23;20356;-76
2021/07/25 07:10:35;;;;;;;9.73;4.68;;;18.00;86.80;;;;;;6188592;23;20016;-78
2021/07/25 07:13:08;;;;;;;9.30;4.28;;;18.00;86.80;;;;;;6188852;23;20027;-77
2021/07/25 07:15:37;;;;;;;9.02;4.07;;;17.90;86.80;;;;;;6188909;23;20023;-77
2021/07/25 07:18:05;;;;;;;10.45;3.95;;;17.90;86.90;;;;;;6215039;23;20038;-76
2021/07/25 07:20:32;;;;;;;7.97;4.07;;;17.90;86.90;;;;;;6214939;23;20023;-77
2021/07/25 07:23:05;;;;;;;11.13;3.90;;;17.90;86.90;;;;;;6188710;23;20031;-77
2021/07/25 07:25:35;;;;;;;7.28;3.47;;;18.00;87.00;;;;;;6214748;23;20100;-78
2021/07/25 07:28:02;;;;;;;8.07;4.00;;;18.00;87.10;;;;;;6215051;23;20016;-77
2021/07/25 07:30:30;;;;;;;7.82;3.83;;;18.00;87.20;;;;;;6188965;23;20017;-76
2021/07/25 07:33:08;;;;;;;6.95;3.30;;;18.00;87.10;;;;;;6214948;23;20476;-75
2021/07/25 07:35:36;;;;;;;10.60;3.30;;;18.00;87.10;;;;;;6215107;23;20016;-76
2021/07/25 07:38:04;;;;;;;6.38;3.42;;;18.00;87.10;;;;;;6215003;23;20024;-77
2021/07/25 07:40:31;;;;;;;5.55;3.13;;;18.00;87.10;;;;;;6214984;23;20021;-76
2021/07/25 07:42:59;;;;;;;10.73;3.80;;;18.00;87.20;;;;;;6186981;23;20044;-75
2021/07/25 07:45:28;;;;;;;8.02;4.10;;;18.00;87.20;;;;;;6212728;23;20017;-75
2021/07/25 07:47:55;;;;;;;9.63;4.18;;;18.00;87.10;;;;;;6187232;23;20017;-75
2021/07/25 07:50:22;;;;;;;8.18;4.18;;;18.10;87.40;;;;;;6213742;23;20096;-76
2021/07/25 07:52:49;;;;;;;10.25;4.80;;;18.20;87.50;;;;;;6186907;23;20415;-76
2021/07/25 07:55:17;;;;;;;10.10;4.03;;;18.20;87.70;;;;;;6214132;23;20020;-75
2021/07/25 07:57:45;;;;;;;11.70;4.63;;;18.20;87.60;;;;;;6213986;23;20027;-77
2021/07/25 08:00:14;;;;;;;7.45;3.80;;;18.30;87.50;;;;;;6213469;23;20024;-75
2021/07/25 08:02:41;;;;;;;6.82;4.18;;;18.30;87.40;;;;;;6213487;23;20020;-75
2021/07/25 08:05:09;;;;;;;9.48;4.07;;;18.40;87.20;;;;;;6213791;23;20021;-76
2021/07/25 08:07:37;;;;;;;8.70;4.30;;;18.40;87.50;;;;;;6213295;23;20034;-75
2021/07/25 08:10:06;;;;;;;7.90;3.95;;;18.40;87.50;;;;;;6214094;23;20017;-75
2021/07/25 08:12:34;;;;;;;6.90;3.60;;;18.50;87.60;;;;;;6216097;23;20046;-75
2021/07/25 08:15:01;;;;;;;8.30;3.70;;;18.60;87.60;;;;;;6214827;23;20025;-75
2021/07/25 08:17:28;;;;;;;5.22;3.40;;;18.60;87.50;;;;;;6214944;23;20031;-78
2021/07/25 08:19:55;;;;;;;9.25;4.10;;;18.70;87.50;;;;;;6215442;23;20021;-74
2021/07/25 08:22:23;;;;;;;11.52;4.20;;;18.70;87.10;;;;;;6215404;23;20519;-75
2021/07/25 08:24:50;;;;;;;6.25;3.58;;;18.80;86.80;;;;;;6214965;23;20024;-75
2021/07/25 08:27:17;;;;;;;5.60;3.45;;;18.70;86.80;;;;;;6214677;23;20020;-75
2021/07/25 08:29:44;;;;;;;7.25;3.33;;;18.80;86.90;;;;;;6215244;23;20491;-75
2021/07/25 08:32:11;;;;;;;6.63;3.67;;;18.80;86.70;;;;;;6214874;23;20360;-75
2021/07/25 08:34:39;;;;;;;8.43;4.03;;;18.80;86.20;;;;;;6215320;23;20071;-74
2021/07/25 08:37:07;;;;;;;8.45;4.10;;;18.80;86.20;;;;;;6215249;23;20027;-75
2021/07/25 08:39:34;;;;;;;8.52;3.85;;;18.80;86.50;;;;;;6215144;23;20043;-75
2021/07/25 08:42:17;;;;;;;7.60;4.00;;;18.90;86.40;;;;;;6188897;23;20044;-75
2021/07/25 08:44:50;;;;;;;10.65;4.97;;;18.90;86.30;;;;;;6214983;23;20476;-75
2021/07/25 08:47:17;;;;;;;16.25;4.90;;;18.90;85.90;;;;;;6188670;23;20017;-75
2021/07/25 08:49:59;;;;;;;10.88;4.45;;;18.90;86.30;;;;;;6215160;23;20020;-74
2021/07/25 08:52:31;;;;;;;10.45;5.65;;;18.90;86.60;;;;;;6189259;23;20027;-75
2021/07/25 08:55:01;;;;;;;11.57;4.45;;;19.00;86.80;;;;;;6214548;23;20021;-75
2021/07/25 08:57:31;;;;;;;8.90;4.68;;;19.00;86.00;;;;;;6188535;23;20030;-75
2021/07/25 08:59:59;;;;;;;10.00;4.72;;;19.10;86.50;;;;;;6214951;23;20468;-75
2021/07/25 09:02:29;;;;;;;7.68;4.57;;;19.20;86.20;;;;;;6214957;23;20020;-75
2021/07/25 09:04:58;;;;;;;11.38;4.80;;;19.20;85.50;;;;;;6214830;23;20392;-75
2021/07/25 09:07:30;;;;;;;14.15;4.78;;;19.20;85.60;;;;;;6214951;23;20027;-75
2021/07/25 09:10:05;;;;;;;9.50;4.75;;;19.20;85.50;;;;;;6214368;23;20020;-75
2021/07/25 09:12:33;;;;;;;14.48;4.85;;;19.30;85.50;;;;;;6215482;23;20032;-76
2021/07/25 09:15:11;;;;;;;8.13;4.80;;;19.30;84.70;;;;;;6214466;23;20468;-76
2021/07/25 09:17:38;;;;;;;10.88;5.20;;;19.30;85.00;;;;;;6214889;23;20042;-75
2021/07/25 09:20:11;;;;;;;9.90;5.40;;;19.30;85.20;;;;;;6214703;23;20484;-76
2021/07/25 09:22:48;;;;;;;11.50;5.00;;;19.30;85.30;;;;;;6214271;23;20059;-75
2021/07/25 09:25:24;;;;;;;9.07;5.13;;;19.30;85.10;;;;;;6214772;23;20092;-75
2021/07/25 09:27:57;;;;;;;9.88;4.78;;;19.30;85.10;;;;;;6214611;23;20468;-75
2021/07/25 09:30:27;;;;;;;10.95;4.18;;;19.30;85.50;;;;;;6214325;23;20016;-75
2021/07/25 09:32:56;;;;;;;8.68;4.72;;;19.30;85.30;;;;;;6214904;23;20025;-76
2021/07/25 09:35:27;;;;;;;8.75;5.30;;;19.30;84.80;;;;;;6214503;23;20468;-76
2021/07/25 09:38:10;;;;;;;7.28;4.32;;;19.30;84.60;;;;;;6213783;23;20075;-76
2021/07/25 09:40:38;;;;;;;10.32;5.07;;;19.30;83.90;;;;;;6214037;23;20371;-77
2021/07/25 09:43:12;;;;;;;10.20;4.50;;;19.30;84.00;;;;;;6214456;23;20027;-76
2021/07/25 09:46:08;;;;;;;7.18;4.13;;;19.30;84.20;;;;;;6188640;23;20020;-77
2021/07/25 09:48:36;;;;;;;7.03;4.00;;;19.20;84.00;;;;;;6186201;23;20021;-78
2021/07/25 09:51:21;;;;;;;6.70;4.05;;;19.20;84.20;;;;;;6188422;23;20464;-77
2021/07/25 09:53:53;;;;;;;5.82;3.38;;;19.10;84.70;;;;;;6187879;23;20083;-78
2021/07/25 09:56:23;;;;;;;7.28;2.63;;;19.00;84.70;;;;;;6188040;23;20026;-78
2021/07/25 09:58:51;;;;;;;5.70;3.10;;;19.10;85.10;;;;;;6214798;23;20078;-78
2021/07/25 10:01:42;;;;;;;7.53;4.00;;;19.10;85.30;;;;;;6187339;23;20020;-77
2021/07/25 10:04:21;;;;;;;10.45;5.43;;;19.10;85.90;;;;;;6188097;23;20020;-74
2021/07/25 10:06:50;;;;;;;12.73;5.47;;;19.20;86.50;;;;;;6188022;23;20024;-75
2021/07/25 10:09:19;;;;;;;7.70;4.28;;;19.30;87.20;;;;;;6213930;23;20028;-74
2021/07/25 10:11:54;;;;;;;9.05;4.47;;;19.40;87.10;;;;;;6214328;23;20024;-74
2021/07/25 10:14:21;;;;;;;9.88;4.65;;;19.60;87.20;;;;;;6214055;23;20021;-75
2021/07/25 10:16:55;;;;;;;6.88;4.28;;;19.80;87.20;;;;;;6213844;23;20027;-75
2021/07/25 10:19:35;;;;;;;8.10;4.75;;;19.90;86.30;;;;;;6214683;23;20021;-75
2021/07/25 10:22:08;;;;;;;8.90;5.80;;;19.90;85.80;;;;;;6187283;23;20016;-76
2021/07/25 10:24:37;;;;;;;7.03;5.55;;;19.90;84.50;;;;;;6213866;23;20027;-76
2021/07/25 10:27:05;;;;;;;11.85;6.45;;;19.90;85.40;;;;;;6214660;23;20016;-75
2021/07/25 10:29:33;;;;;;;13.88;6.50;;;19.90;84.00;;;;;;6214028;23;20016;-75
2021/07/25 10:32:02;;;;;;;12.02;7.60;;;20.00;84.60;;;;;;6213856;23;20403;-75
2021/07/25 10:34:31;;;;;;;11.73;6.65;;;20.10;84.80;;;;;;6214147;23;20027;-74
2021/07/25 10:36:58;;;;;;;12.77;6.00;;;20.30;86.10;;;;;;6213095;23;20152;-75
2021/07/25 10:39:27;;;;;;;9.90;5.80;;;20.40;82.00;;;;;;6214786;23;20021;-75
2021/07/25 10:42:02;;;;;;;12.32;6.13;;;20.40;81.60;;;;;;6214278;23;20023;-75
2021/07/25 10:44:29;;;;;;;10.02;6.03;;;20.50;83.10;;;;;;6187925;23;20024;-74
2021/07/25 10:47:31;;;;;;;11.70;5.90;;;20.60;82.60;;;;;;6213971;23;20021;-74
2021/07/25 10:49:59;;;;;;;8.70;5.20;;;20.70;80.90;;;;;;6214318;23;20043;-74
2021/07/25 10:52:28;;;;;;;10.25;6.05;;;20.80;80.90;;;;;;6187754;23;20024;-75
2021/07/25 10:54:55;;;;;;;12.18;5.90;;;20.90;80.50;;;;;;6214350;23;20436;-74
2021/07/25 10:57:22;;;;;;;7.50;5.20;;;20.90;79.00;;;;;;6214244;23;20384;-75
2021/07/25 10:59:52;;;;;;;8.02;4.93;;;21.00;80.00;;;;;;6212966;23;20021;-74
2021/07/25 11:02:22;;;;;;;12.15;5.30;;;20.90;77.90;;;;;;6214161;23;20391;-75
2021/07/25 11:04:53;;;;;;;7.53;4.95;;;21.00;79.50;;;;;;6214161;23;20099;-76
2021/07/25 11:07:22;;;;;;;9.20;5.25;;;21.00;80.20;;;;;;6213876;23;20032;-73
2021/07/25 11:10:10;;;;;;;11.05;5.22;;;21.00;79.40;;;;;;6188652;23;20017;-75
2021/07/25 11:12:52;;;;;;;8.38;5.13;;;21.00;78.30;;;;;;6214128;23;20021;-78
2021/07/25 11:15:34;;;;;;;8.15;5.32;;;20.90;80.00;;;;;;6214042;23;20025;-77
2021/07/25 11:18:09;;;;;;;9.25;5.10;;;20.90;79.90;;;;;;6213885;23;20021;-77
2021/07/25 11:20:51;;;;;;;9.50;5.40;;;20.90;79.20;;;;;;6187448;23;20329;-76
2021/07/25 11:23:21;;;;;;;11.32;5.72;;;20.90;78.50;;;;;;6188130;23;20021;-78
2021/07/25 11:25:49;;;;;;;8.40;5.55;;;20.90;79.20;;;;;;6187803;23;20021;-76
2021/07/25 11:28:40;;;;;;;10.95;5.32;;;20.90;79.90;;;;;;6213634;23;20020;-76
2021/07/25 11:31:12;;;;;;;12.13;6.10;;;20.90;79.00;;;;;;6188090;23;20021;-77
2021/07/25 11:33:45;;;;;;;8.98;5.50;;;20.90;79.00;;;;;;6214191;23;20028;-78
2021/07/25 11:36:15;;;;;;;10.88;6.28;;;20.90;78.90;;;;;;6187076;23;20099;-77
2021/07/25 11:38:51;;;;;;;11.10;6.07;;;20.90;78.90;;;;;;6187126;23;20497;-77
2021/07/25 11:41:25;;;;;;;9.20;6.20;;;20.80;78.50;;;;;;6214383;23;20020;-78
2021/07/25 11:43:58;;;;;;;13.15;6.22;;;20.80;78.60;;;;;;6213782;23;20348;-76
2021/07/25 11:46:30;;;;;;;13.63;6.70;;;20.90;79.60;;;;;;6215534;23;20055;-78
2021/07/25 11:49:25;;;;;;;11.80;6.60;;;20.90;80.40;;;;;;6216020;23;20020;-77
2021/07/25 11:51:59;;;;;;;11.65;6.50;;;21.00;82.30;;;;;;6215373;23;20551;-75
2021/07/25 11:54:37;;;;;;;14.15;6.30;;;21.10;79.80;;;;;;6189643;23;20021;-77
2021/07/25 11:57:07;;;;;;;9.25;6.50;;;21.10;77.90;;;;;;6190083;23;20017;-78
2021/07/25 11:59:39;;;;;;;15.52;7.07;;;21.10;77.90;;;;;;6215533;23;20047;-77
2021/07/25 12:02:08;;;;;;;13.88;6.70;;;21.10;77.40;;;;;;6189182;23;20017;-76
2021/07/25 12:04:45;;;;;;;17.85;7.10;;;21.00;77.80;;;;;;6215513;23;20021;-78
2021/07/25 12:07:19;;;;;;;12.30;7.57;;;20.90;79.70;;;;;;6189094;23;20519;-78
2021/07/25 12:09:47;;;;;;;12.75;6.97;;;20.80;80.10;;;;;;6188867;23;20060;-77
2021/07/25 12:12:22;;;;;;;13.40;7.38;;;20.70;80.00;;;;;;6189671;23;20345;-77
2021/07/25 12:14:57;;;;;;;13.68;8.15;;;20.60;80.80;;;;;;6215526;23;20020;-77
2021/07/25 12:17:48;;;;;;;14.35;7.68;;;20.60;82.40;;;;;;6189093;23;20025;-77
2021/07/25 12:20:18;;;;;;;16.20;8.48;;;20.60;81.50;;;;;;6188738;23;20346;-78
2021/07/25 12:22:48;;;;;;;12.90;9.02;;;20.60;82.40;;;;;;6215308;23;20027;-77
2021/07/25 12:25:15;;;;;;;13.90;10.02;;;20.60;83.20;;;;;;6215103;23;20027;-76
2021/07/25 12:27:43;;;;;;;20.00;12.95;;;20.70;84.20;;;;;;6189055;23;20021;-76
2021/07/25 12:30:15;;;;;;;12.13;8.45;;;20.90;86.90;;;;;;6188806;23;20104;-77
2021/07/25 12:32:47;;;;;;;11.80;6.82;;;21.10;83.80;;;;;;6215081;23;20075;-77
2021/07/25 12:35:17;;;;;;;10.75;7.70;;;21.20;81.50;;;;;;6189063;23;20043;-76
2021/07/25 12:37:52;;;;;;;15.20;7.03;;;21.30;81.50;;;;;;6215095;23;20021;-76
2021/07/25 12:40:28;;;;;;;9.77;6.22;;;21.40;80.00;;;;;;6215091;23;20024;-76
2021/07/25 12:42:58;;;;;;;8.88;6.03;;;21.40;79.40;;;;;;6215089;23;20115;-77
2021/07/25 12:45:34;;;;;;;10.57;6.10;;;21.40;78.00;;;;;;6215269;23;20023;-77
2021/07/25 12:48:20;;;;;;;9.25;5.80;;;21.30;76.50;;;;;;6215518;23;20055;-76
2021/07/25 12:54:00;;;;;;;13.32;5.60;;;21.20;76.40;;;;;;6215359;23;20043;-76
2021/07/25 12:56:32;;;;;;;14.93;6.30;;;21.30;76.00;;;;;;6214787;23;20096;-76
2021/07/25 12:59:04;;;;;;;12.85;5.40;;;21.40;75.70;;;;;;6214379;23;20029;-76